createdAt,value
2018-02-18T00:01:18.959Z,63.83
2018-02-18T00:03:46.560Z,55.57
2018-02-18T00:06:14.202Z,61.03
2018-02-18T00:08:41.772Z,67.40
2018-02-18T00:11:09.333Z,61.67
2018-02-18T00:13:36.960Z,58.53
2018-02-18T00:16:04.529Z,67.07
2018-02-18T00:18:32.105Z,60.57
2018-02-18T00:20:59.728Z,52.50
2018-02-18T00:23:27.353Z,58.67
2018-02-18T00:25:55.712Z,69.10
2018-02-18T00:28:23.344Z,61.23
2018-02-18T00:30:50.946Z,60.70
2018-02-18T00:33:18.540Z,67.53
2018-02-18T00:35:46.125Z,62.03
2018-02-18T00:38:13.687Z,58.37
2018-02-18T00:40:41.265Z,59.20
2018-02-18T00:43:08.850Z,62.27
2018-02-18T00:45:36.462Z,71.23
2018-02-18T00:48:04.031Z,64.63
2018-02-18T00:50:31.612Z,53.93
2018-02-18T00:52:59.234Z,64.23
2018-02-18T00:55:26.803Z,63.73
2018-02-18T00:57:54.389Z,57.70
2018-02-18T01:00:21.956Z,60.33
2018-02-18T01:02:49.538Z,54.40
2018-02-18T01:05:17.874Z,58.50
2018-02-18T01:07:45.479Z,59.93
2018-02-18T01:10:13.821Z,65.13
2018-02-18T01:12:41.424Z,58.83
2018-02-18T01:15:09.782Z,63.73
2018-02-18T01:17:37.343Z,65.80
2018-02-18T01:20:04.938Z,63.33
2018-02-18T01:22:32.520Z,62.93
2018-02-18T01:25:00.136Z,61.17
2018-02-18T01:27:28.480Z,66.23
2018-02-18T01:29:56.044Z,59.47
2018-02-18T01:32:23.647Z,59.83
2018-02-18T01:34:51.214Z,62.07
2018-02-18T01:37:18.826Z,55.40
2018-02-18T01:39:46.404Z,64.33
2018-02-18T01:42:14.768Z,58.80
2018-02-18T01:44:42.372Z,58.57
2018-02-18T01:47:09.978Z,60.50
2018-02-18T01:49:38.533Z,58.23
2018-02-18T01:52:06.097Z,54.87
2018-02-18T01:54:33.678Z,59.53
2018-02-18T01:57:01.262Z,55.70
2018-02-18T01:59:28.862Z,52.63
2018-02-18T02:01:56.457Z,60.00
2018-02-18T02:04:24.040Z,62.13
2018-02-18T02:06:51.597Z,53.70
2018-02-18T02:09:19.196Z,60.93
2018-02-18T02:11:46.800Z,55.20
2018-02-18T02:14:14.381Z,49.20
2018-02-18T02:16:41.973Z,58.97
2018-02-18T02:19:09.556Z,58.37
2018-02-18T02:21:37.179Z,52.03
2018-02-18T02:24:05.532Z,54.13
2018-02-18T02:26:33.106Z,59.23
2018-02-18T02:29:00.695Z,53.80
2018-02-18T02:31:28.279Z,57.80
2018-02-18T02:33:55.872Z,60.30
2018-02-18T02:36:23.453Z,58.37
2018-02-18T02:38:51.851Z,58.77
2018-02-18T02:41:19.466Z,65.83
2018-02-18T02:43:47.052Z,56.00
2018-02-18T02:46:15.405Z,54.23
2018-02-18T02:48:42.987Z,61.83
2018-02-18T02:51:11.356Z,59.50
2018-02-18T02:53:38.911Z,57.47
2018-02-18T02:56:06.499Z,61.17
2018-02-18T02:58:34.854Z,59.73
2018-02-18T03:01:02.493Z,61.87
2018-02-18T03:03:30.174Z,66.90
2018-02-18T03:05:58.551Z,56.53
2018-02-18T03:08:26.160Z,54.50
2018-02-18T03:10:53.717Z,58.77
2018-02-18T03:13:22.184Z,63.07
2018-02-18T03:15:50.533Z,65.97
2018-02-18T03:18:18.158Z,65.37
2018-02-18T03:20:45.723Z,74.43
2018-02-18T03:23:13.279Z,64.30
2018-02-18T03:25:40.861Z,67.67
2018-02-18T03:28:08.432Z,71.53
2018-02-18T03:30:36.043Z,77.67
2018-02-18T03:33:03.638Z,69.17
2018-02-18T03:35:31.315Z,58.23
2018-02-18T03:37:58.925Z,74.30
2018-02-18T03:40:26.521Z,61.43
2018-02-18T03:42:54.097Z,71.03
2018-02-18T03:45:21.689Z,69.60
2018-02-18T03:47:49.309Z,71.23
2018-02-18T03:50:16.883Z,64.77
2018-02-18T03:52:44.461Z,64.97
2018-02-18T03:55:12.035Z,76.00
2018-02-18T03:57:39.619Z,63.08
2018-02-18T04:00:07.236Z,64.87
2018-02-18T04:02:35.567Z,65.57
2018-02-18T04:05:03.306Z,74.30
2018-02-18T04:07:30.935Z,67.15
2018-02-18T04:09:59.288Z,70.93
2018-02-18T04:12:26.906Z,67.28
2018-02-18T04:14:54.497Z,68.80
2018-02-18T04:17:22.067Z,68.70
2018-02-18T04:19:49.703Z,81.73
2018-02-18T04:22:17.282Z,66.23
2018-02-18T04:24:44.892Z,71.60
2018-02-18T04:27:12.492Z,70.73
2018-02-18T04:29:40.110Z,65.30
2018-02-18T04:32:07.677Z,73.13
2018-02-18T04:34:35.272Z,78.03
2018-02-18T04:37:02.858Z,76.70
2018-02-18T04:39:32.133Z,76.20
2018-02-18T04:41:59.739Z,77.70
2018-02-18T04:44:28.085Z,77.35
2018-02-18T04:46:55.700Z,81.10
2018-02-18T04:49:23.304Z,66.78
2018-02-18T04:51:50.921Z,70.53
2018-02-18T04:54:18.490Z,71.65
2018-02-18T04:56:46.099Z,72.30
2018-02-18T04:59:13.679Z,69.07
2018-02-18T05:01:42.024Z,79.87
2018-02-18T05:04:09.640Z,75.28
2018-02-18T05:06:37.210Z,67.23
2018-02-18T05:09:04.820Z,76.22
2018-02-18T05:11:33.208Z,72.53
2018-02-18T05:14:01.562Z,68.93
2018-02-18T05:16:29.188Z,67.32
2018-02-18T05:18:57.639Z,65.33
2018-02-18T05:21:26.008Z,74.33
2018-02-18T05:23:54.353Z,63.73
2018-02-18T05:26:21.956Z,72.20
2018-02-18T05:28:50.310Z,70.73
2018-02-18T05:31:18.707Z,62.80
2018-02-18T05:33:47.040Z,61.47
2018-02-18T05:36:14.638Z,66.93
2018-02-18T05:38:42.230Z,66.57
2018-02-18T05:41:09.823Z,58.67
2018-02-18T05:43:37.410Z,63.50
2018-02-18T05:46:04.973Z,53.60
2018-02-18T05:48:32.571Z,62.03
2018-02-18T05:51:00.158Z,54.60
2018-02-18T05:53:27.779Z,50.77
2018-02-18T05:55:56.124Z,56.17
2018-02-18T05:58:23.715Z,57.50
2018-02-18T06:00:51.323Z,54.60
2018-02-18T06:03:18.899Z,56.77
2018-02-18T06:05:46.516Z,51.17
2018-02-18T06:08:14.070Z,55.73
2018-02-18T06:10:41.796Z,52.67
2018-02-18T06:13:10.160Z,62.13
2018-02-18T06:15:37.830Z,56.23
2018-02-18T06:18:05.451Z,58.07
2018-02-18T06:20:34.048Z,52.03
2018-02-18T06:23:01.701Z,64.10
2018-02-18T06:25:29.264Z,62.90
2018-02-18T06:27:56.883Z,70.07
2018-02-18T06:30:25.227Z,70.93
2018-02-18T06:32:52.846Z,64.60
2018-02-18T06:35:20.468Z,65.27
2018-02-18T06:37:48.808Z,70.80
2018-02-18T06:40:16.398Z,67.63
2018-02-18T06:42:43.991Z,58.43
2018-02-18T06:45:11.612Z,63.57
2018-02-18T06:47:39.245Z,62.92
2018-02-18T06:50:06.880Z,66.60
2018-02-18T06:52:34.464Z,63.87
2018-02-18T06:55:02.886Z,67.17
2018-02-18T06:57:31.260Z,64.17
2018-02-18T06:59:58.816Z,71.23
2018-02-18T07:02:26.472Z,64.47
2018-02-18T07:04:54.063Z,68.67
2018-02-18T07:07:22.440Z,69.33
2018-02-18T07:09:50.786Z,57.00
2018-02-18T07:12:18.372Z,62.13
2018-02-18T07:14:46.779Z,62.30
2018-02-18T07:17:14.372Z,58.90
2018-02-18T07:19:42.977Z,60.83
2018-02-18T07:22:10.547Z,63.23
2018-02-18T07:24:38.224Z,56.70
2018-02-18T07:27:06.562Z,61.87
2018-02-18T07:29:34.149Z,58.87
2018-02-18T07:32:01.870Z,57.43
2018-02-18T07:37:04.025Z,59.37
2018-02-18T07:39:31.719Z,60.77
2018-02-18T07:41:59.287Z,59.43
2018-02-18T07:44:26.866Z,64.80
2018-02-18T07:46:54.479Z,57.50
2018-02-18T07:49:22.055Z,60.60
2018-02-18T07:51:49.648Z,54.30
2018-02-18T07:54:17.231Z,61.83
2018-02-18T07:56:45.601Z,63.70
2018-02-18T07:59:13.960Z,56.73
2018-02-18T08:01:42.342Z,58.87
2018-02-18T08:04:10.916Z,56.33
2018-02-18T08:06:39.403Z,58.33
2018-02-18T08:09:07.847Z,57.93
2018-02-18T08:11:35.426Z,56.70
2018-02-18T08:14:03.005Z,57.57
2018-02-18T08:16:31.686Z,52.33
2018-02-18T08:19:00.066Z,52.30
2018-02-18T08:21:27.675Z,51.63
2018-02-18T08:23:55.302Z,59.60
2018-02-18T08:26:22.924Z,66.13
2018-02-18T08:28:50.503Z,60.60
2018-02-18T08:31:18.113Z,58.67
2018-02-18T08:33:46.610Z,55.43
2018-02-18T08:36:14.254Z,57.07
2018-02-18T08:38:41.867Z,57.40
2018-02-18T08:41:09.431Z,56.17
2018-02-18T08:43:37.996Z,55.30
2018-02-18T08:46:05.591Z,52.67
2018-02-18T08:48:33.254Z,58.60
2018-02-18T08:51:00.821Z,60.57
2018-02-18T08:53:29.156Z,55.23
2018-02-18T08:55:56.751Z,55.03
2018-02-18T08:58:24.316Z,48.93
2018-02-18T09:00:52.839Z,54.30
2018-02-18T09:03:20.416Z,53.67
2018-02-18T09:05:48.011Z,54.47
2018-02-18T09:08:16.560Z,51.63
2018-02-18T09:10:44.124Z,45.67
2018-02-18T09:13:11.715Z,52.97
2018-02-18T09:15:39.277Z,42.80
2018-02-18T09:18:06.880Z,53.90
2018-02-18T09:20:34.447Z,53.20
2018-02-18T09:23:02.038Z,46.73
2018-02-18T09:25:29.617Z,46.80
2018-02-18T09:27:57.287Z,43.70
2018-02-18T09:30:24.879Z,51.60
2018-02-18T09:32:52.517Z,54.20
2018-02-18T09:35:20.910Z,45.10
2018-02-18T09:37:48.485Z,50.83
2018-02-18T09:40:16.080Z,44.70
2018-02-18T09:42:43.652Z,46.13
2018-02-18T09:45:11.238Z,50.63
2018-02-18T09:47:39.582Z,47.87
2018-02-18T09:50:07.152Z,48.93
2018-02-18T09:52:34.780Z,50.90
2018-02-18T09:55:03.352Z,50.47
2018-02-18T09:57:30.956Z,48.13
2018-02-18T09:59:59.536Z,50.53
2018-02-18T10:02:27.139Z,52.90
2018-02-18T10:04:54.760Z,52.33
2018-02-18T10:07:22.337Z,48.30
2018-02-18T10:09:50.702Z,53.40
2018-02-18T10:12:21.819Z,57.33
2018-02-18T10:14:49.475Z,45.07
2018-02-18T10:17:17.049Z,44.90
2018-02-18T10:19:44.655Z,48.87
2018-02-18T10:22:12.226Z,47.33
2018-02-18T10:24:39.799Z,43.07
2018-02-18T10:27:07.407Z,49.83
2018-02-18T10:29:34.989Z,45.03
2018-02-18T10:32:03.437Z,43.13
2018-02-18T10:34:31.100Z,43.20
2018-02-18T10:36:59.678Z,46.00
2018-02-18T10:39:27.255Z,36.33
2018-02-18T10:41:55.643Z,36.67
2018-02-18T10:44:24.005Z,26.77
2018-02-18T10:46:54.309Z,29.27
2018-02-18T10:49:21.971Z,32.20
2018-02-18T10:51:49.548Z,32.43
2018-02-18T10:54:17.182Z,33.80
2018-02-18T10:56:44.750Z,31.57
2018-02-18T10:59:14.273Z,40.70
2018-02-18T11:01:41.874Z,36.07
2018-02-18T11:04:09.493Z,38.57
2018-02-18T11:06:37.075Z,35.37
2018-02-18T11:09:04.667Z,30.50
2018-02-18T11:11:33.298Z,29.80
2018-02-18T11:14:00.871Z,25.20
2018-02-18T11:16:28.455Z,27.00
2018-02-18T11:18:56.067Z,28.90
2018-02-18T11:21:23.672Z,31.50
2018-02-18T11:23:51.275Z,34.77
2018-02-18T11:26:18.888Z,28.80
2018-02-18T11:28:47.287Z,38.50
2018-02-18T11:31:14.855Z,30.33
2018-02-18T11:33:42.431Z,33.53
2018-02-18T11:36:10.030Z,32.27
2018-02-18T11:38:37.623Z,30.00
2018-02-18T11:41:05.492Z,29.07
2018-02-18T11:43:33.100Z,35.63
2018-02-18T11:46:00.676Z,32.63
2018-02-18T11:48:29.143Z,26.63
2018-02-18T11:50:56.759Z,28.63
2018-02-18T11:53:24.330Z,31.40
2018-02-18T11:55:51.978Z,32.13
2018-02-18T11:58:19.564Z,35.57
2018-02-18T12:00:47.136Z,29.30
2018-02-18T12:03:14.742Z,30.50
2018-02-18T12:05:43.480Z,34.97
2018-02-18T12:08:11.895Z,31.60
2018-02-18T12:10:41.247Z,28.10
2018-02-18T12:13:08.824Z,32.40
2018-02-18T12:15:36.443Z,31.40
2018-02-18T12:18:04.031Z,37.40
2018-02-18T12:20:31.640Z,36.27
2018-02-18T12:22:59.966Z,30.50
2018-02-18T12:25:27.578Z,36.70
2018-02-18T12:27:55.922Z,32.63
2018-02-18T12:30:23.502Z,36.57
2018-02-18T12:32:51.183Z,39.80
2018-02-18T12:35:18.791Z,33.57
2018-02-18T12:37:46.394Z,31.30
2018-02-18T12:40:14.027Z,27.03
2018-02-18T12:42:41.615Z,30.90
2018-02-18T12:45:09.201Z,33.50
2018-02-18T12:47:36.798Z,33.60
2018-02-18T12:50:04.364Z,28.80
2018-02-18T12:52:31.963Z,26.93
2018-02-18T12:55:00.342Z,33.87
2018-02-18T12:57:28.737Z,28.07
2018-02-18T12:59:56.326Z,31.27
2018-02-18T13:02:24.272Z,32.80
2018-02-18T13:04:51.853Z,29.43
2018-02-18T13:07:19.433Z,30.00
2018-02-18T13:09:47.019Z,28.37
2018-02-18T13:12:14.596Z,27.10
2018-02-18T13:14:42.973Z,28.37
2018-02-18T13:17:11.322Z,33.73
2018-02-18T13:19:41.953Z,36.90
2018-02-18T13:22:09.566Z,32.30
2018-02-18T13:24:37.148Z,36.77
2018-02-18T13:27:04.838Z,26.90
2018-02-18T13:29:33.424Z,32.40
2018-02-18T13:32:00.992Z,28.73
2018-02-18T13:34:33.872Z,27.73
2018-02-18T13:37:01.448Z,30.77
2018-02-18T13:39:29.833Z,32.50
2018-02-18T13:41:57.427Z,33.43
2018-02-18T13:44:25.003Z,36.60
2018-02-18T13:46:53.603Z,31.97
2018-02-18T13:49:21.240Z,31.90
2018-02-18T13:51:48.841Z,31.60
2018-02-18T13:54:16.449Z,28.90
2018-02-18T13:56:44.059Z,33.60
2018-02-18T13:59:11.646Z,35.57
2018-02-18T14:01:39.229Z,35.17
2018-02-18T14:04:06.863Z,35.33
2018-02-18T14:06:35.220Z,36.07
2018-02-18T14:09:02.781Z,33.53
2018-02-18T14:11:33.798Z,32.93
2018-02-18T14:14:01.371Z,30.57
2018-02-18T14:16:29.872Z,36.97
2018-02-18T14:18:58.200Z,33.20
2018-02-18T14:21:25.781Z,36.23
2018-02-18T14:23:53.859Z,28.00
2018-02-18T14:26:21.433Z,37.13
2018-02-18T14:28:49.014Z,40.57
2018-02-18T14:31:16.627Z,37.33
2018-02-18T14:33:44.373Z,39.57
2018-02-18T14:36:11.981Z,35.20
2018-02-18T14:38:40.322Z,36.70
2018-02-18T14:41:07.915Z,35.00
2018-02-18T14:43:47.380Z,29.60
2018-02-18T14:46:26.947Z,29.90
2018-02-18T14:49:07.396Z,36.20
2018-02-18T14:51:47.813Z,31.47
2018-02-18T14:54:27.983Z,35.23
2018-02-18T14:57:02.227Z,31.43
2018-02-18T14:59:29.833Z,31.53
2018-02-18T15:01:57.413Z,38.60
2018-02-18T15:04:25.742Z,31.03
2018-02-18T15:06:53.340Z,32.70
2018-02-18T15:09:20.912Z,31.90
2018-02-18T15:11:49.333Z,29.10
2018-02-18T15:14:19.555Z,30.13
2018-02-18T15:16:48.034Z,34.77
2018-02-18T15:19:15.626Z,36.13
2018-02-18T15:21:44.191Z,37.80
2018-02-18T15:24:11.784Z,35.73
2018-02-18T15:26:39.349Z,32.60
2018-02-18T15:29:06.938Z,37.90
2018-02-18T15:31:34.549Z,38.00
2018-02-18T15:34:02.138Z,32.33
2018-02-18T15:36:30.521Z,42.43
2018-02-18T15:38:58.888Z,37.47
2018-02-18T15:41:26.527Z,36.50
2018-02-18T15:43:54.121Z,41.23
2018-02-18T15:46:22.594Z,41.13
2018-02-18T15:48:50.204Z,37.90
2018-02-18T15:51:17.777Z,31.73
2018-02-18T15:53:45.366Z,34.47
2018-02-18T15:56:12.940Z,38.93
2018-02-18T15:58:41.290Z,34.07
2018-02-18T16:01:08.912Z,33.03
2018-02-18T16:03:36.494Z,31.40
2018-02-18T16:06:04.042Z,32.10
2018-02-18T16:08:31.654Z,35.63
2018-02-18T16:10:59.246Z,34.80
2018-02-18T16:13:26.830Z,32.70
2018-02-18T16:15:54.416Z,46.50
2018-02-18T16:18:22.000Z,35.20
2018-02-18T16:20:50.364Z,33.07
2018-02-18T16:23:17.999Z,33.90
2018-02-18T16:25:45.558Z,36.90
2018-02-18T16:28:13.151Z,37.63
2018-02-18T16:30:41.511Z,35.40
2018-02-18T16:33:09.099Z,34.77
2018-02-18T16:35:37.432Z,32.23
2018-02-18T16:38:05.041Z,38.70
2018-02-18T16:40:33.378Z,32.63
2018-02-18T16:43:00.987Z,38.20
2018-02-18T16:45:29.343Z,38.87
2018-02-18T16:47:56.926Z,36.40
2018-02-18T16:50:25.307Z,37.07
2018-02-18T16:52:52.873Z,37.87
2018-02-18T16:55:20.469Z,34.30
2018-02-18T16:57:48.064Z,35.70
2018-02-18T17:00:15.651Z,37.47
2018-02-18T17:02:43.242Z,34.77
2018-02-18T17:05:10.881Z,35.43
2018-02-18T17:07:39.186Z,32.23
2018-02-18T17:10:06.769Z,39.23
2018-02-18T17:12:34.402Z,36.53
2018-02-18T17:15:02.017Z,42.30
2018-02-18T17:17:30.346Z,33.67
2018-02-18T17:19:57.903Z,34.17
2018-02-18T17:22:25.506Z,36.90
2018-02-18T17:24:53.865Z,36.73
2018-02-18T17:27:21.493Z,38.67
2018-02-18T17:29:49.086Z,38.00
2018-02-18T17:32:16.679Z,35.00
2018-02-18T17:34:45.022Z,37.23
2018-02-18T17:37:12.619Z,40.70
2018-02-18T17:39:40.978Z,36.80
2018-02-18T17:42:08.600Z,33.83
2018-02-18T17:44:36.176Z,39.60
2018-02-18T17:47:03.751Z,37.80
2018-02-18T17:49:31.347Z,48.23
2018-02-18T17:51:58.919Z,34.57
2018-02-18T17:54:26.622Z,32.87
2018-02-18T17:56:54.189Z,37.77
2018-02-18T17:59:21.772Z,35.70
2018-02-18T18:01:50.133Z,31.70
2018-02-18T18:04:17.713Z,36.40
2018-02-18T18:06:46.092Z,29.40
2018-02-18T18:09:14.433Z,32.30
2018-02-18T18:11:42.046Z,30.80
2018-02-18T18:14:09.633Z,31.60
2018-02-18T18:16:37.204Z,34.67
2018-02-18T18:19:04.807Z,38.30
2018-02-18T18:21:33.132Z,35.60
2018-02-18T18:24:00.708Z,36.33
2018-02-18T18:26:28.327Z,39.67
2018-02-18T18:28:55.959Z,34.00
2018-02-18T18:31:24.294Z,35.27
2018-02-18T18:33:51.857Z,32.93
2018-02-18T18:36:19.445Z,34.60
2018-02-18T18:38:47.023Z,34.90
2018-02-18T18:41:15.383Z,37.03
2018-02-18T18:43:42.983Z,38.80
2018-02-18T18:46:10.599Z,37.10
2018-02-18T18:48:38.172Z,41.63
2018-02-18T18:51:05.758Z,36.23
2018-02-18T18:53:33.328Z,40.93
2018-02-18T18:56:00.947Z,42.17
2018-02-18T18:58:28.520Z,43.83
2018-02-18T19:00:56.861Z,41.87
2018-02-18T19:03:24.481Z,38.17
2018-02-18T19:05:52.069Z,38.53
2018-02-18T19:08:19.648Z,46.17
2018-02-18T19:10:47.244Z,37.03
2018-02-18T19:13:15.607Z,38.37
2018-02-18T19:15:43.198Z,45.93
2018-02-18T19:18:10.809Z,60.80
2018-02-18T19:20:38.380Z,49.77
2018-02-18T19:23:05.982Z,52.80
2018-02-18T19:25:33.572Z,53.03
2018-02-18T19:28:01.133Z,57.50
2018-02-18T19:30:28.736Z,47.37
2018-02-18T19:32:57.098Z,35.10
2018-02-18T19:35:24.710Z,42.37
2018-02-18T19:37:52.284Z,35.47
2018-02-18T19:40:19.887Z,33.97
2018-02-18T19:42:47.483Z,34.43
2018-02-18T19:45:15.087Z,40.67
2018-02-18T19:47:42.679Z,33.90
2018-02-18T19:50:11.032Z,35.40
2018-02-18T19:52:38.633Z,40.60
2018-02-18T19:55:06.979Z,38.13
2018-02-18T19:57:35.563Z,35.07
2018-02-18T20:00:03.149Z,33.90
2018-02-18T20:02:31.498Z,32.83
2018-02-18T20:04:59.108Z,35.60
2018-02-18T20:07:26.680Z,40.37
2018-02-18T20:09:54.300Z,37.47
2018-02-18T20:12:22.633Z,37.63
2018-02-18T20:14:50.229Z,36.53
2018-02-18T20:17:17.798Z,35.70
2018-02-18T20:19:46.126Z,37.67
2018-02-18T20:22:13.724Z,33.53
2018-02-18T20:24:41.295Z,29.17
2018-02-18T20:27:09.646Z,29.43
2018-02-18T20:29:37.228Z,28.20
2018-02-18T20:32:05.609Z,31.43
2018-02-18T20:34:33.988Z,32.23
2018-02-18T20:37:02.367Z,28.20
2018-02-18T20:39:30.723Z,29.30
2018-02-18T20:41:58.346Z,38.50
2018-02-18T20:44:25.941Z,35.40
2018-02-18T20:46:53.523Z,39.20
2018-02-18T20:49:21.112Z,34.90
2018-02-18T20:51:48.718Z,36.60
2018-02-18T20:54:16.283Z,29.40
2018-02-18T20:56:43.902Z,36.77
2018-02-18T20:59:11.477Z,35.70
2018-02-18T21:01:39.057Z,33.30
2018-02-18T21:04:06.660Z,34.80
2018-02-18T21:06:34.981Z,36.40
2018-02-18T21:09:02.571Z,39.03
2018-02-18T21:11:30.140Z,44.20
2018-02-18T21:13:57.741Z,35.10
2018-02-18T21:16:26.237Z,36.30
2018-02-18T21:18:53.831Z,39.70
2018-02-18T21:21:21.404Z,32.53
2018-02-18T21:23:49.764Z,36.07
2018-02-18T21:26:17.363Z,35.50
2018-02-18T21:28:44.940Z,36.80
2018-02-18T21:31:12.521Z,35.77
2018-02-18T21:33:40.088Z,36.17
2018-02-18T21:36:07.796Z,34.80
2018-02-18T21:38:35.384Z,31.07
2018-02-18T21:41:02.937Z,34.10
2018-02-18T21:43:30.525Z,32.77
2018-02-18T21:45:58.097Z,34.43
2018-02-18T21:48:25.697Z,33.70
2018-02-18T21:50:54.037Z,30.43
2018-02-18T21:53:21.622Z,30.63
2018-02-18T21:55:49.200Z,39.83
2018-02-18T21:58:17.593Z,30.03
2018-02-18T22:00:45.156Z,34.60
2018-02-18T22:03:12.760Z,32.87
2018-02-18T22:05:40.349Z,32.37
2018-02-18T22:08:08.690Z,29.83
2018-02-18T22:10:36.291Z,28.47
2018-02-18T22:13:04.646Z,35.93
2018-02-18T22:15:32.227Z,31.97
2018-02-18T22:18:00.562Z,27.13
2018-02-18T22:20:28.180Z,23.50
2018-02-18T22:22:55.764Z,24.73
2018-02-18T22:25:23.356Z,32.23
2018-02-18T22:30:24.881Z,30.83
2018-02-18T22:32:52.466Z,24.17
2018-02-18T22:35:20.032Z,35.37
2018-02-18T22:37:47.632Z,30.83
2018-02-18T22:40:15.278Z,24.17
2018-02-18T22:42:42.831Z,28.17
2018-02-18T22:45:10.436Z,35.30
2018-02-18T22:47:38.004Z,33.07
2018-02-18T22:50:05.570Z,33.73
2018-02-18T22:52:33.155Z,35.70
2018-02-18T22:55:00.723Z,34.37
2018-02-18T22:57:28.297Z,32.97
2018-02-18T22:59:55.888Z,36.60
2018-02-18T23:02:23.469Z,31.13
2018-02-18T23:04:51.067Z,35.73
2018-02-18T23:07:18.648Z,24.23
2018-02-18T23:09:46.212Z,26.50
2018-02-18T23:12:14.576Z,24.57
2018-02-18T23:14:42.144Z,23.47
2018-02-18T23:17:10.494Z,24.17
2018-02-18T23:19:38.071Z,26.77
2018-02-18T23:22:05.668Z,35.40
2018-02-18T23:24:33.276Z,27.10
2018-02-18T23:27:00.839Z,28.23
2018-02-18T23:29:28.393Z,26.23
2018-02-18T23:31:56.000Z,23.10
2018-02-18T23:34:24.339Z,25.57
2018-02-18T23:36:51.945Z,26.00
2018-02-18T23:39:19.497Z,26.37
2018-02-18T23:41:47.840Z,25.00
2018-02-18T23:44:15.422Z,24.57
2018-02-18T23:46:43.013Z,22.87
2018-02-18T23:49:10.592Z,22.73
2018-02-18T23:51:38.214Z,25.47
2018-02-18T23:54:06.539Z,21.80
2018-02-18T23:56:34.116Z,25.40
2018-02-18T23:59:01.722Z,21.40
